createdAt,value
2023-03-13T00:00:06.453Z,7.05
2023-03-13T00:02:51.897Z,6.43
2023-03-13T00:05:37.729Z,6.15
2023-03-13T00:08:23.796Z,7.95
2023-03-13T00:11:12.192Z,6.28
2023-03-13T00:13:59.577Z,5.75
2023-03-13T00:16:45.026Z,6.50
2023-03-13T00:19:30.601Z,7.60
2023-03-13T00:22:23.867Z,8.93
2023-03-13T00:25:09.650Z,10.30
2023-03-13T00:27:54.936Z,9.18
2023-03-13T00:30:40.604Z,10.75
2023-03-13T00:33:25.949Z,9.88
2023-03-13T00:36:22.785Z,8.95
2023-03-13T00:39:08.597Z,9.50
2023-03-13T00:41:54.075Z,10.40
2023-03-13T00:44:39.508Z,10.02
2023-03-13T00:47:26.004Z,10.63
2023-03-13T00:50:11.417Z,10.80
2023-03-13T00:52:57.128Z,10.57
2023-03-13T00:56:02.627Z,9.55
2023-03-13T00:58:50.396Z,10.50
2023-03-13T01:01:39.814Z,10.30
2023-03-13T01:04:25.090Z,11.55
2023-03-13T01:07:10.498Z,11.40
2023-03-13T01:09:56.351Z,12.02
2023-03-13T01:12:42.348Z,10.75
2023-03-13T01:15:27.660Z,13.77
2023-03-13T01:18:15.578Z,12.93
2023-03-13T01:21:01.648Z,11.65
2023-03-13T01:23:47.903Z,13.38
2023-03-13T01:26:33.744Z,12.02
2023-03-13T01:29:19.211Z,13.23
2023-03-13T01:32:05.103Z,12.73
2023-03-13T01:34:53.359Z,11.07
2023-03-13T01:37:38.827Z,10.77
2023-03-13T01:40:24.457Z,10.93
2023-03-13T01:43:27.502Z,11.10
2023-03-13T01:46:21.518Z,11.55
2023-03-13T01:49:29.669Z,12.75
2023-03-13T01:52:32.109Z,11.02
2023-03-13T01:55:44.085Z,12.73
2023-03-13T01:58:30.309Z,15.30
2023-03-13T02:01:17.408Z,12.55
2023-03-13T02:04:04.498Z,14.68
2023-03-13T02:06:53.443Z,15.48
2023-03-13T02:09:43.812Z,17.05
2023-03-13T02:12:41.317Z,14.98
2023-03-13T02:15:28.488Z,16.52
2023-03-13T02:18:15.349Z,15.98
2023-03-13T02:21:18.320Z,15.77
2023-03-13T02:24:28.930Z,15.38
2023-03-13T02:27:17.884Z,16.77
2023-03-13T02:30:07.439Z,16.63
2023-03-13T02:32:53.187Z,15.90
2023-03-13T02:35:40.311Z,16.33
2023-03-13T02:38:35.663Z,14.35
2023-03-13T02:41:23.110Z,14.57
2023-03-13T02:44:09.185Z,13.68
2023-03-13T02:46:54.648Z,14.10
2023-03-13T02:49:44.381Z,12.70
2023-03-13T02:52:40.124Z,13.15
2023-03-13T02:55:40.668Z,10.38
2023-03-13T02:58:28.019Z,11.38
2023-03-13T03:01:14.646Z,12.20
2023-03-13T03:04:01.659Z,10.18
2023-03-13T03:06:50.488Z,9.48
2023-03-13T03:09:35.933Z,9.50
2023-03-13T03:12:25.872Z,9.50
2023-03-13T03:15:12.216Z,7.97
2023-03-13T03:18:02.367Z,8.13
2023-03-13T03:20:47.955Z,7.60
2023-03-13T03:23:34.765Z,8.00
2023-03-13T03:26:20.357Z,8.35
2023-03-13T03:29:08.607Z,8.00
2023-03-13T03:31:54.947Z,8.20
2023-03-13T03:34:40.694Z,7.57
2023-03-13T03:37:29.314Z,6.68
2023-03-13T03:40:17.386Z,6.47
2023-03-13T03:43:03.666Z,6.25
2023-03-13T03:45:49.376Z,5.85
2023-03-13T03:48:35.217Z,5.55
2023-03-13T03:51:23.165Z,6.63
2023-03-13T03:54:08.740Z,6.47
2023-03-13T03:56:54.236Z,7.00
2023-03-13T03:59:39.959Z,6.57
2023-03-13T04:02:27.829Z,6.15
2023-03-13T04:05:20.064Z,5.85
2023-03-13T04:08:09.682Z,6.35
2023-03-13T04:10:56.089Z,7.03
2023-03-13T04:13:44.605Z,7.65
2023-03-13T04:16:30.390Z,6.30
2023-03-13T04:19:15.758Z,7.55
2023-03-13T04:22:01.962Z,7.00
2023-03-13T04:24:48.592Z,6.40
2023-03-13T04:27:34.816Z,6.25
2023-03-13T04:30:20.989Z,7.90
2023-03-13T04:33:25.704Z,6.22
2023-03-13T04:36:35.273Z,6.68
2023-03-13T04:39:53.636Z,7.00
2023-03-13T04:42:59.268Z,7.05
2023-03-13T04:49:14.523Z,7.47
2023-03-13T04:52:00.001Z,7.72
2023-03-13T04:55:01.723Z,7.25
2023-03-13T04:58:13.544Z,6.75
2023-03-13T05:01:21.125Z,5.68
2023-03-13T05:04:26.012Z,5.38
2023-03-13T05:07:37.803Z,5.00
2023-03-13T05:10:30.939Z,5.28
2023-03-13T05:13:45.429Z,4.70
2023-03-13T05:16:45.552Z,4.95
2023-03-13T05:20:00.076Z,4.75
2023-03-13T05:23:06.577Z,4.00
2023-03-13T05:26:27.997Z,4.57
2023-03-13T05:29:26.822Z,3.67
2023-03-13T05:32:35.746Z,3.40
2023-03-13T05:35:45.760Z,4.38
2023-03-13T05:38:57.494Z,3.45
2023-03-13T05:42:02.437Z,4.30
2023-03-13T05:45:09.251Z,4.28
2023-03-13T05:48:30.196Z,3.80
2023-03-13T05:51:30.186Z,3.80
2023-03-13T05:54:44.660Z,3.15
2023-03-13T05:58:06.616Z,3.72
2023-03-13T06:01:07.983Z,3.80
2023-03-13T06:04:06.077Z,3.25
2023-03-13T06:06:54.263Z,3.55
2023-03-13T06:09:41.012Z,3.33
2023-03-13T06:12:27.435Z,3.85
2023-03-13T06:15:14.946Z,3.28
2023-03-13T06:18:13.143Z,4.18
2023-03-13T06:21:01.312Z,3.67
2023-03-13T06:23:46.581Z,3.63
2023-03-13T06:26:32.149Z,3.72
2023-03-13T06:29:18.292Z,4.25
2023-03-13T06:32:03.865Z,4.45
2023-03-13T06:34:51.897Z,4.65
2023-03-13T06:37:39.508Z,3.70
2023-03-13T06:40:26.238Z,5.13
2023-03-13T06:43:12.004Z,4.97
2023-03-13T06:45:58.118Z,4.45
2023-03-13T06:48:44.523Z,5.03
2023-03-13T06:51:30.122Z,6.50
2023-03-13T06:54:15.720Z,6.95
2023-03-13T06:57:01.217Z,5.97
2023-03-13T06:59:46.943Z,7.13
2023-03-13T07:02:32.800Z,6.22
2023-03-13T07:05:18.358Z,5.50
2023-03-13T07:08:04.172Z,6.18
2023-03-13T07:10:52.274Z,6.47
2023-03-13T07:13:38.147Z,6.50
2023-03-13T07:16:23.934Z,6.97
2023-03-13T07:19:09.345Z,6.88
2023-03-13T07:21:55.248Z,6.40
2023-03-13T07:24:40.764Z,7.07
2023-03-13T07:27:26.540Z,6.80
2023-03-13T07:30:12.169Z,7.50
2023-03-13T07:32:58.880Z,6.03
2023-03-13T07:35:50.292Z,5.53
2023-03-13T07:38:35.908Z,5.97
2023-03-13T07:41:21.413Z,5.65
2023-03-13T07:44:07.099Z,4.78
2023-03-13T07:46:52.573Z,5.65
2023-03-13T07:49:42.085Z,4.65
2023-03-13T07:52:28.053Z,4.65
2023-03-13T07:55:13.575Z,3.60
2023-03-13T07:57:59.038Z,5.15
2023-03-13T08:00:44.420Z,4.40
2023-03-13T08:03:30.350Z,4.10
2023-03-13T08:06:18.084Z,3.83
2023-03-13T08:09:03.860Z,3.90
2023-03-13T08:11:49.706Z,4.28
2023-03-13T08:14:34.959Z,4.57
2023-03-13T08:17:20.827Z,3.20
2023-03-13T08:20:07.902Z,4.45
2023-03-13T08:22:55.713Z,3.58
2023-03-13T08:25:41.344Z,4.10
2023-03-13T08:28:28.862Z,4.20
2023-03-13T08:31:23.240Z,3.63
2023-03-13T08:34:08.640Z,4.10
2023-03-13T08:36:54.120Z,3.42
2023-03-13T08:39:39.768Z,3.67
2023-03-13T08:42:25.389Z,3.63
2023-03-13T08:45:13.467Z,3.05
2023-03-13T08:47:58.733Z,3.03
2023-03-13T08:50:43.956Z,2.60
2023-03-13T08:53:30.915Z,2.85
2023-03-13T08:56:18.570Z,2.60
2023-03-13T08:59:05.671Z,2.38
2023-03-13T09:01:50.956Z,2.30
2023-03-13T09:04:36.721Z,2.50
2023-03-13T09:07:22.295Z,2.78
2023-03-13T09:10:08.714Z,2.28
2023-03-13T09:12:54.026Z,3.00
2023-03-13T09:15:39.723Z,2.67
2023-03-13T09:18:25.964Z,2.90
2023-03-13T09:21:21.178Z,2.67
2023-03-13T09:24:06.928Z,2.58
2023-03-13T09:27:00.922Z,2.30
2023-03-13T09:29:46.792Z,2.55
2023-03-13T09:32:32.530Z,2.33
2023-03-13T09:35:22.887Z,3.05
2023-03-13T09:38:08.462Z,2.47
2023-03-13T09:41:05.669Z,2.28
2023-03-13T09:44:18.175Z,2.38
2023-03-13T09:47:05.889Z,2.35
2023-03-13T09:50:04.905Z,2.33
2023-03-13T09:52:55.252Z,2.58
2023-03-13T09:55:44.927Z,1.85
2023-03-13T09:58:31.651Z,1.88
2023-03-13T10:01:22.743Z,1.38
2023-03-13T10:04:43.712Z,1.60
2023-03-13T10:07:29.430Z,2.10
2023-03-13T10:10:21.676Z,1.55
2023-03-13T10:13:22.490Z,2.00
2023-03-13T10:16:11.771Z,1.73
2023-03-13T10:19:02.581Z,2.20
2023-03-13T10:21:53.506Z,1.85
2023-03-13T10:24:52.012Z,1.58
2023-03-13T10:27:55.034Z,1.77
2023-03-13T10:30:48.302Z,2.15
2023-03-13T10:33:36.938Z,2.38
2023-03-13T10:36:24.941Z,1.80
2023-03-13T10:39:19.135Z,1.77
2023-03-13T10:42:20.481Z,2.17
2023-03-13T10:45:06.813Z,1.90
2023-03-13T10:47:56.876Z,2.67
2023-03-13T10:50:45.015Z,2.65
2023-03-13T10:53:30.682Z,2.28
2023-03-13T10:56:24.530Z,2.55
2023-03-13T10:59:27.848Z,2.13
2023-03-13T11:02:40.217Z,1.85
2023-03-13T11:05:26.367Z,2.30
2023-03-13T11:08:16.231Z,2.00
2023-03-13T11:11:16.458Z,2.70
2023-03-13T11:14:10.109Z,2.17
2023-03-13T11:17:32.563Z,2.42
2023-03-13T11:20:30.280Z,2.25
2023-03-13T11:23:23.072Z,1.95
2023-03-13T11:26:32.509Z,2.13
2023-03-13T11:29:39.997Z,1.70
2023-03-13T11:32:50.026Z,3.13
2023-03-13T11:35:49.184Z,2.58
2023-03-13T11:38:44.508Z,2.70
2023-03-13T11:42:01.138Z,2.92
2023-03-13T11:44:58.668Z,2.35
2023-03-13T11:48:08.957Z,3.08
2023-03-13T11:51:07.701Z,3.03
2023-03-13T11:54:16.500Z,3.30
2023-03-13T11:57:14.544Z,2.95
2023-03-13T12:00:18.382Z,3.22
2023-03-13T12:03:20.389Z,2.53
2023-03-13T12:06:27.383Z,3.53
2023-03-13T12:09:19.386Z,3.13
2023-03-13T12:12:31.161Z,3.20
2023-03-13T12:15:24.674Z,2.92
2023-03-13T12:18:30.057Z,2.90
2023-03-13T12:24:34.207Z,3.03
2023-03-13T12:27:35.337Z,3.97
2023-03-13T12:30:36.133Z,4.93
2023-03-13T12:33:26.847Z,4.38
2023-03-13T12:36:33.430Z,4.30
2023-03-13T12:39:53.557Z,4.82
2023-03-13T12:42:58.141Z,4.80
2023-03-13T12:46:02.173Z,4.90
2023-03-13T12:49:18.892Z,4.50
2023-03-13T12:52:13.444Z,5.18
2023-03-13T12:55:22.373Z,4.97
2023-03-13T12:58:29.720Z,4.88
2023-03-13T13:01:24.276Z,4.72
2023-03-13T13:04:19.824Z,5.05
2023-03-13T13:07:18.241Z,5.78
2023-03-13T13:10:10.077Z,6.70
2023-03-13T13:13:18.749Z,6.25
2023-03-13T13:16:08.163Z,5.15
2023-03-13T13:19:22.825Z,5.15
2023-03-13T13:22:36.938Z,4.70
2023-03-13T13:25:35.256Z,5.57
2023-03-13T13:28:27.494Z,4.82
2023-03-13T13:31:44.343Z,4.97
2023-03-13T13:34:31.077Z,4.50
2023-03-13T13:37:16.486Z,4.25
2023-03-13T13:40:31.180Z,5.53
2023-03-13T13:43:23.322Z,5.07
2023-03-13T13:46:24.564Z,4.78
2023-03-13T13:49:18.911Z,5.72
2023-03-13T13:52:07.121Z,5.10
2023-03-13T13:54:57.393Z,5.88
2023-03-13T13:57:45.905Z,5.47
2023-03-13T14:00:56.582Z,6.30
2023-03-13T14:03:42.355Z,5.75
2023-03-13T14:06:32.012Z,5.78
2023-03-13T14:09:43.158Z,6.25
2023-03-13T14:12:32.042Z,5.68
2023-03-13T14:15:34.213Z,6.35
2023-03-13T14:18:22.264Z,5.63
2023-03-13T14:21:14.098Z,5.55
2023-03-13T14:24:13.828Z,6.20
2023-03-13T14:26:59.733Z,5.68
2023-03-13T14:30:04.774Z,5.63
2023-03-13T14:32:51.540Z,5.53
2023-03-13T14:35:37.500Z,5.90
2023-03-13T14:38:30.079Z,5.30
2023-03-13T14:41:44.860Z,5.55
2023-03-13T14:44:37.581Z,6.28
2023-03-13T14:47:34.764Z,6.05
2023-03-13T14:50:24.831Z,4.95
2023-03-13T14:53:21.897Z,6.00
2023-03-13T14:56:18.997Z,6.05
2023-03-13T14:59:17.372Z,6.10
2023-03-13T15:02:20.101Z,5.68
2023-03-13T15:05:11.489Z,5.72
2023-03-13T15:07:57.987Z,6.05
2023-03-13T15:10:43.713Z,6.72
2023-03-13T15:13:38.552Z,6.00
2023-03-13T15:16:32.532Z,5.53
2023-03-13T15:19:18.150Z,5.15
2023-03-13T15:22:04.008Z,6.50
2023-03-13T15:25:04.948Z,5.53
2023-03-13T15:27:52.542Z,5.45
2023-03-13T15:30:38.288Z,6.00
2023-03-13T15:33:29.653Z,5.07
2023-03-13T15:36:15.135Z,5.55
2023-03-13T15:39:00.746Z,6.53
2023-03-13T15:41:54.035Z,7.03
2023-03-13T15:44:40.563Z,5.90
2023-03-13T15:47:26.649Z,6.43
2023-03-13T15:50:19.445Z,7.57
2023-03-13T15:53:17.186Z,6.60
2023-03-13T15:56:13.751Z,7.13
2023-03-13T15:59:04.017Z,7.50
2023-03-13T16:01:50.108Z,6.80
2023-03-13T16:04:37.663Z,6.95
2023-03-13T16:07:24.562Z,5.70
2023-03-13T16:10:29.713Z,6.85
2023-03-13T16:13:15.390Z,6.90
2023-03-13T16:16:00.840Z,7.63
2023-03-13T16:18:51.039Z,5.78
2023-03-13T16:21:43.055Z,6.43
2023-03-13T16:24:28.680Z,7.38
2023-03-13T16:27:19.095Z,7.07
2023-03-13T16:30:12.304Z,6.28
2023-03-13T16:32:58.850Z,7.80
2023-03-13T16:35:44.980Z,6.57
2023-03-13T16:38:30.832Z,7.53
2023-03-13T16:41:19.157Z,6.05
2023-03-13T16:44:04.779Z,7.38
2023-03-13T16:47:04.421Z,6.85
2023-03-13T16:49:50.936Z,6.75
2023-03-13T16:52:36.429Z,7.30
2023-03-13T16:55:29.622Z,6.55
2023-03-13T16:58:14.897Z,7.05
2023-03-13T17:01:06.118Z,7.63
2023-03-13T17:03:52.517Z,7.90
2023-03-13T17:06:48.135Z,6.63
2023-03-13T17:12:19.291Z,6.73
2023-03-13T17:15:05.137Z,7.80
2023-03-13T17:17:52.385Z,7.50
2023-03-13T17:20:37.751Z,7.65
2023-03-13T17:23:23.215Z,7.13
2023-03-13T17:26:39.241Z,8.25
2023-03-13T17:29:24.794Z,7.00
2023-03-13T17:32:14.901Z,7.55
2023-03-13T17:35:00.319Z,8.38
2023-03-13T17:37:45.963Z,7.82
2023-03-13T17:40:34.667Z,8.43
2023-03-13T17:43:20.803Z,7.93
2023-03-13T17:46:16.057Z,7.43
2023-03-13T17:49:01.597Z,8.57
2023-03-13T17:51:49.328Z,8.10
2023-03-13T17:54:35.190Z,7.95
2023-03-13T17:57:22.396Z,7.57
2023-03-13T18:00:26.051Z,6.28
2023-03-13T18:03:13.819Z,6.63
2023-03-13T18:05:59.334Z,8.52
2023-03-13T18:08:45.169Z,7.43
2023-03-13T18:11:30.852Z,7.63
2023-03-13T18:14:16.619Z,8.52
2023-03-13T18:17:02.178Z,8.48
2023-03-13T18:19:49.293Z,8.40
2023-03-13T18:22:34.570Z,7.80
2023-03-13T18:25:19.936Z,6.85
2023-03-13T18:28:05.435Z,7.50
2023-03-13T18:30:51.112Z,6.80
2023-03-13T18:33:36.415Z,7.30
2023-03-13T18:36:22.006Z,8.15
2023-03-13T18:39:07.754Z,6.90
2023-03-13T18:41:52.882Z,6.00
2023-03-13T18:44:38.705Z,6.82
2023-03-13T18:47:27.527Z,6.70
2023-03-13T18:50:19.038Z,7.55
2023-03-13T18:53:04.617Z,7.25
2023-03-13T18:55:49.972Z,7.05
2023-03-13T18:58:35.317Z,7.55
2023-03-13T19:01:22.874Z,6.40
2023-03-13T19:04:10.515Z,6.63
2023-03-13T19:06:55.768Z,6.60
2023-03-13T19:09:46.816Z,7.10
2023-03-13T19:12:32.760Z,7.25
2023-03-13T19:15:18.404Z,7.07
2023-03-13T19:18:04.419Z,7.35
2023-03-13T19:20:51.253Z,6.15
2023-03-13T19:23:36.565Z,6.95
2023-03-13T19:26:46.819Z,6.40
2023-03-13T19:29:36.451Z,6.78
2023-03-13T19:32:22.188Z,7.05
2023-03-13T19:35:15.020Z,8.00
2023-03-13T19:38:00.622Z,6.72
2023-03-13T19:40:51.884Z,7.45
2023-03-13T19:43:38.752Z,6.03
2023-03-13T19:46:29.269Z,7.47
2023-03-13T19:49:22.571Z,5.75
2023-03-13T19:52:08.208Z,6.88
2023-03-13T19:54:55.734Z,6.20
2023-03-13T19:57:44.193Z,7.18
2023-03-13T20:00:29.438Z,6.40
2023-03-13T20:03:15.720Z,5.90
2023-03-13T20:06:01.316Z,6.82
2023-03-13T20:08:47.547Z,6.72
2023-03-13T20:11:32.920Z,6.95
2023-03-13T20:14:18.675Z,6.65
2023-03-13T20:17:04.067Z,5.50
2023-03-13T20:19:49.760Z,6.25
2023-03-13T20:22:35.213Z,6.32
2023-03-13T20:25:24.129Z,6.45
2023-03-13T20:28:10.879Z,6.55
2023-03-13T20:30:56.221Z,7.50
2023-03-13T20:33:41.967Z,7.15
2023-03-13T20:36:33.860Z,5.93
2023-03-13T20:39:19.448Z,7.05
2023-03-13T20:42:07.541Z,6.28
2023-03-13T20:44:53.133Z,6.28
2023-03-13T20:47:47.765Z,6.47
2023-03-13T20:50:33.173Z,6.50
2023-03-13T20:53:19.739Z,5.93
2023-03-13T20:56:07.363Z,7.25
2023-03-13T20:58:56.121Z,6.68
2023-03-13T21:01:44.363Z,6.18
2023-03-13T21:04:29.844Z,7.55
2023-03-13T21:07:15.030Z,7.00
2023-03-13T21:10:00.698Z,7.32
2023-03-13T21:12:46.630Z,7.03
2023-03-13T21:15:32.622Z,6.63
2023-03-13T21:18:20.877Z,8.05
2023-03-13T21:21:13.201Z,6.43
2023-03-13T21:23:58.642Z,7.57
2023-03-13T21:26:47.212Z,7.63
2023-03-13T21:29:32.564Z,6.78
2023-03-13T21:32:19.431Z,6.38
2023-03-13T21:35:05.858Z,6.90
2023-03-13T21:37:51.554Z,7.20
2023-03-13T21:40:41.293Z,6.13
2023-03-13T21:43:28.346Z,6.80
2023-03-13T21:46:17.023Z,7.22
2023-03-13T21:49:03.078Z,5.93
2023-03-13T21:51:48.557Z,6.72
2023-03-13T21:54:34.302Z,6.65
2023-03-13T21:57:22.115Z,6.55
2023-03-13T22:00:09.816Z,5.93
2023-03-13T22:02:55.413Z,5.78
2023-03-13T22:05:45.084Z,5.90
2023-03-13T22:08:30.954Z,6.40
2023-03-13T22:11:16.204Z,7.03
2023-03-13T22:14:01.585Z,6.07
2023-03-13T22:16:48.080Z,5.95
2023-03-13T22:19:37.424Z,5.78
2023-03-13T22:22:23.168Z,5.72
2023-03-13T22:25:08.807Z,5.18
2023-03-13T22:27:54.192Z,7.32
2023-03-13T22:30:40.214Z,6.35
2023-03-13T22:33:25.868Z,6.20
2023-03-13T22:36:11.780Z,7.75
2023-03-13T22:38:59.629Z,4.90
2023-03-13T22:41:45.146Z,6.88
2023-03-13T22:44:30.945Z,5.40
2023-03-13T22:47:16.204Z,6.53
2023-03-13T22:50:01.767Z,6.18
2023-03-13T22:52:47.424Z,5.13
2023-03-13T22:55:33.490Z,5.82
2023-03-13T22:58:18.776Z,4.97
2023-03-13T23:01:09.559Z,6.00
2023-03-13T23:03:55.445Z,5.38
2023-03-13T23:06:41.105Z,4.38
2023-03-13T23:09:26.613Z,5.20
2023-03-13T23:12:12.008Z,5.90
2023-03-13T23:14:59.603Z,5.10
2023-03-13T23:17:45.344Z,4.28
2023-03-13T23:20:30.528Z,4.30
2023-03-13T23:23:16.137Z,4.75
2023-03-13T23:26:03.484Z,4.63
2023-03-13T23:28:54.690Z,3.72
2023-03-13T23:32:05.351Z,3.72
2023-03-13T23:34:50.987Z,4.70
2023-03-13T23:37:36.507Z,4.47
2023-03-13T23:40:23.766Z,4.18
2023-03-13T23:43:09.993Z,5.78
2023-03-13T23:45:55.254Z,4.65
2023-03-13T23:48:42.201Z,4.40
2023-03-13T23:51:30.754Z,3.65
2023-03-13T23:54:16.415Z,4.32
2023-03-13T23:57:01.760Z,3.67
2023-03-13T23:59:47.001Z,4.55
